createdAt,value
2023-01-26T00:00:24.961Z,7.33
2023-01-26T00:01:27.919Z,6.33
2023-01-26T00:02:30.683Z,6.29
2023-01-26T00:03:34.157Z,6.17
2023-01-26T00:04:37.295Z,6.57
2023-01-26T00:05:40.000Z,6.50
2023-01-26T00:06:42.618Z,7.67
2023-01-26T00:07:45.345Z,7.83
2023-01-26T00:08:48.057Z,7.83
2023-01-26T00:09:50.800Z,6.67
2023-01-26T00:10:53.430Z,7.29
2023-01-26T00:11:56.138Z,7.33
2023-01-26T00:12:59.012Z,8.86
2023-01-26T00:14:01.814Z,8.50
2023-01-26T00:15:04.489Z,7.00
2023-01-26T00:16:07.272Z,9.67
2023-01-26T00:17:10.089Z,10.86
2023-01-26T00:18:12.829Z,9.67
2023-01-26T00:19:15.719Z,11.00
2023-01-26T00:20:18.595Z,11.00
2023-01-26T00:21:21.331Z,10.67
2023-01-26T00:22:24.146Z,10.33
2023-01-26T00:23:26.925Z,8.83
2023-01-26T00:24:29.604Z,9.33
2023-01-26T00:25:32.361Z,10.14
2023-01-26T00:26:35.076Z,10.17
2023-01-26T00:27:37.741Z,9.33
2023-01-26T00:28:40.537Z,10.33
2023-01-26T00:29:43.406Z,10.17
2023-01-26T00:30:46.033Z,10.33
2023-01-26T00:31:48.758Z,10.83
2023-01-26T00:32:51.989Z,9.67
2023-01-26T00:33:54.940Z,12.00
2023-01-26T00:34:57.894Z,11.67
2023-01-26T00:36:00.763Z,10.33
2023-01-26T00:37:03.959Z,10.71
2023-01-26T00:38:06.984Z,10.57
2023-01-26T00:39:10.078Z,9.57
2023-01-26T00:40:13.426Z,9.67
2023-01-26T00:41:16.468Z,11.57
2023-01-26T00:42:19.627Z,12.14
2023-01-26T00:43:22.715Z,13.43
2023-01-26T00:44:25.656Z,13.57
2023-01-26T00:45:28.770Z,13.00
2023-01-26T00:46:31.776Z,12.33
2023-01-26T00:47:34.598Z,10.33
2023-01-26T00:48:37.560Z,11.83
2023-01-26T00:49:40.511Z,12.50
2023-01-26T00:50:43.506Z,12.43
2023-01-26T00:51:46.233Z,12.00
2023-01-26T00:52:49.029Z,11.67
2023-01-26T00:53:51.705Z,11.67
2023-01-26T00:54:54.687Z,12.14
2023-01-26T00:55:57.614Z,11.00
2023-01-26T00:57:00.329Z,10.33
2023-01-26T00:58:03.113Z,12.00
2023-01-26T00:59:05.819Z,11.67
2023-01-26T01:00:08.608Z,12.00
2023-01-26T01:01:11.450Z,11.57
2023-01-26T01:02:14.286Z,11.67
2023-01-26T01:03:17.069Z,10.33
2023-01-26T01:04:19.682Z,10.57
2023-01-26T01:05:22.321Z,10.00
2023-01-26T01:06:25.039Z,11.17
2023-01-26T01:07:27.818Z,11.67
2023-01-26T01:08:30.412Z,11.57
2023-01-26T01:09:33.509Z,11.50
2023-01-26T01:10:36.104Z,10.00
2023-01-26T01:11:38.890Z,10.67
2023-01-26T01:12:41.541Z,11.00
2023-01-26T01:13:44.491Z,11.00
2023-01-26T01:14:47.180Z,11.33
2023-01-26T01:15:50.131Z,11.67
2023-01-26T01:16:52.812Z,11.14
2023-01-26T01:17:55.466Z,10.67
2023-01-26T01:18:58.135Z,11.00
2023-01-26T01:20:00.847Z,10.33
2023-01-26T01:21:03.709Z,10.17
2023-01-26T01:22:06.345Z,10.00
2023-01-26T01:23:08.994Z,10.00
2023-01-26T01:24:11.813Z,11.29
2023-01-26T01:25:14.504Z,12.67
2023-01-26T01:26:17.219Z,11.33
2023-01-26T01:27:20.185Z,9.67
2023-01-26T01:28:23.011Z,10.17
2023-01-26T01:29:25.994Z,11.17
2023-01-26T01:30:28.633Z,11.43
2023-01-26T01:31:31.758Z,11.00
2023-01-26T01:32:34.540Z,10.33
2023-01-26T01:33:37.364Z,11.33
2023-01-26T01:34:40.086Z,10.00
2023-01-26T01:35:42.728Z,10.00
2023-01-26T01:36:45.603Z,8.86
2023-01-26T01:37:48.373Z,8.33
2023-01-26T01:38:51.180Z,9.67
2023-01-26T01:39:54.013Z,10.00
2023-01-26T01:40:56.820Z,9.67
2023-01-26T01:41:59.603Z,10.17
2023-01-26T01:43:02.326Z,8.86
2023-01-26T01:44:05.095Z,9.00
2023-01-26T01:45:07.980Z,11.00
2023-01-26T01:46:11.048Z,10.83
2023-01-26T01:47:13.831Z,10.57
2023-01-26T01:48:16.847Z,9.50
2023-01-26T01:49:19.657Z,10.00
2023-01-26T01:50:22.379Z,9.14
2023-01-26T01:51:25.331Z,9.00
2023-01-26T01:52:27.951Z,9.67
2023-01-26T01:53:30.697Z,9.83
2023-01-26T01:54:33.581Z,8.67
2023-01-26T01:55:36.288Z,10.14
2023-01-26T01:56:38.950Z,10.83
2023-01-26T01:57:41.629Z,9.17
2023-01-26T01:58:44.349Z,9.50
2023-01-26T01:59:47.576Z,8.67
2023-01-26T02:00:50.469Z,9.14
2023-01-26T02:01:53.343Z,10.00
2023-01-26T02:02:56.406Z,9.00
2023-01-26T02:03:59.128Z,9.00
2023-01-26T02:05:01.731Z,8.83
2023-01-26T02:06:04.402Z,8.83
2023-01-26T02:07:07.089Z,9.00
2023-01-26T02:08:09.765Z,10.67
2023-01-26T02:09:12.530Z,9.00
2023-01-26T02:10:15.629Z,8.67
2023-01-26T02:11:18.413Z,9.00
2023-01-26T02:12:21.018Z,9.00
2023-01-26T02:13:23.717Z,8.33
2023-01-26T02:14:26.428Z,7.00
2023-01-26T02:15:29.166Z,8.67
2023-01-26T02:16:32.144Z,9.86
2023-01-26T02:17:34.831Z,9.00
2023-01-26T02:18:37.848Z,7.50
2023-01-26T02:19:41.030Z,9.29
2023-01-26T02:20:43.934Z,9.43
2023-01-26T02:21:46.638Z,8.43
2023-01-26T02:22:49.644Z,8.00
2023-01-26T02:23:52.474Z,9.00
2023-01-26T02:24:55.387Z,8.67
2023-01-26T02:25:58.159Z,9.33
2023-01-26T02:27:00.835Z,8.33
2023-01-26T02:28:03.832Z,9.86
2023-01-26T02:29:06.558Z,9.00
2023-01-26T02:30:09.474Z,8.00
2023-01-26T02:31:12.451Z,8.43
2023-01-26T02:32:15.176Z,9.43
2023-01-26T02:33:17.872Z,9.33
2023-01-26T02:34:20.514Z,8.67
2023-01-26T02:35:23.178Z,9.33
2023-01-26T02:36:25.862Z,9.67
2023-01-26T02:37:28.538Z,9.67
2023-01-26T02:38:31.140Z,12.00
2023-01-26T02:39:33.775Z,9.67
2023-01-26T02:40:36.663Z,9.29
2023-01-26T02:41:39.432Z,9.33
2023-01-26T02:42:42.208Z,8.33
2023-01-26T02:43:44.814Z,8.83
2023-01-26T02:44:47.603Z,10.17
2023-01-26T02:45:50.319Z,9.29
2023-01-26T02:46:53.130Z,9.33
2023-01-26T02:47:55.865Z,9.43
2023-01-26T02:48:58.527Z,10.17
2023-01-26T02:50:01.224Z,10.67
2023-01-26T02:51:03.898Z,11.67
2023-01-26T02:52:06.665Z,11.50
2023-01-26T02:53:09.297Z,11.67
2023-01-26T02:54:11.998Z,10.50
2023-01-26T02:55:14.680Z,10.00
2023-01-26T02:56:17.494Z,9.83
2023-01-26T02:57:20.136Z,9.17
2023-01-26T02:58:23.094Z,9.33
2023-01-26T02:59:25.822Z,10.71
2023-01-26T03:00:28.536Z,11.83
2023-01-26T03:01:32.557Z,11.00
2023-01-26T03:02:35.133Z,10.00
2023-01-26T03:03:38.016Z,10.83
2023-01-26T03:04:40.935Z,10.67
2023-01-26T03:05:43.656Z,9.67
2023-01-26T03:06:46.366Z,9.33
2023-01-26T03:07:49.293Z,9.67
2023-01-26T03:08:51.960Z,10.43
2023-01-26T03:09:54.672Z,10.00
2023-01-26T03:10:57.391Z,11.67
2023-01-26T03:12:00.036Z,10.50
2023-01-26T03:13:02.708Z,11.67
2023-01-26T03:14:05.723Z,10.67
2023-01-26T03:15:08.339Z,11.33
2023-01-26T03:16:10.986Z,12.00
2023-01-26T03:17:13.651Z,11.33
2023-01-26T03:18:16.421Z,11.29
2023-01-26T03:19:19.089Z,10.50
2023-01-26T03:20:21.787Z,11.83
2023-01-26T03:21:24.749Z,13.29
2023-01-26T03:22:27.563Z,14.67
2023-01-26T03:23:30.178Z,12.50
2023-01-26T03:24:33.137Z,12.57
2023-01-26T03:25:35.846Z,11.67
2023-01-26T03:26:38.565Z,11.17
2023-01-26T03:27:41.259Z,11.43
2023-01-26T03:28:44.036Z,11.33
2023-01-26T03:29:47.177Z,11.57
2023-01-26T03:30:49.959Z,11.43
2023-01-26T03:31:52.653Z,10.33
2023-01-26T03:32:55.351Z,12.50
2023-01-26T03:33:57.998Z,11.00
2023-01-26T03:35:00.685Z,11.33
2023-01-26T03:36:03.385Z,11.67
2023-01-26T03:37:06.231Z,11.33
2023-01-26T03:38:08.843Z,11.57
2023-01-26T03:39:11.512Z,11.67
2023-01-26T03:40:14.292Z,10.43
2023-01-26T03:41:17.053Z,9.00
2023-01-26T03:42:19.864Z,10.83
2023-01-26T03:43:22.519Z,10.67
2023-01-26T03:44:25.203Z,9.00
2023-01-26T03:45:27.843Z,10.00
2023-01-26T03:46:30.653Z,10.33
2023-01-26T03:47:33.527Z,9.71
2023-01-26T03:48:36.234Z,8.67
2023-01-26T03:49:38.863Z,10.67
2023-01-26T03:50:41.744Z,12.67
2023-01-26T03:51:44.360Z,10.83
2023-01-26T03:52:47.100Z,10.50
2023-01-26T03:53:49.802Z,10.67
2023-01-26T03:54:52.608Z,11.00
2023-01-26T03:55:55.514Z,11.00
2023-01-26T03:56:58.415Z,10.14
2023-01-26T03:58:01.158Z,9.00
2023-01-26T03:59:04.428Z,10.83
2023-01-26T04:00:07.332Z,10.50
2023-01-26T04:01:09.899Z,10.33
2023-01-26T04:02:15.682Z,11.67
2023-01-26T04:03:18.273Z,11.00
2023-01-26T04:04:21.030Z,10.33
2023-01-26T04:05:24.067Z,10.67
2023-01-26T04:06:26.876Z,12.17
2023-01-26T04:07:29.577Z,11.17
2023-01-26T04:08:32.212Z,11.00
2023-01-26T04:09:35.128Z,12.17
2023-01-26T04:10:37.896Z,12.00
2023-01-26T04:11:40.764Z,10.83
2023-01-26T04:12:43.371Z,11.00
2023-01-26T04:13:46.156Z,12.00
2023-01-26T04:14:49.698Z,11.50
2023-01-26T04:15:52.826Z,11.57
2023-01-26T04:16:56.158Z,11.83
2023-01-26T04:17:59.092Z,12.00
2023-01-26T04:19:01.902Z,10.00
2023-01-26T04:20:04.606Z,10.50
2023-01-26T04:21:07.299Z,11.50
2023-01-26T04:22:09.994Z,11.17
2023-01-26T04:23:12.640Z,11.33
2023-01-26T04:24:16.956Z,11.50
2023-01-26T04:25:19.316Z,11.12
2023-01-26T04:26:21.947Z,11.00
2023-01-26T04:27:24.724Z,11.00
2023-01-26T04:28:27.509Z,11.67
2023-01-26T04:29:30.163Z,12.17
2023-01-26T04:30:32.855Z,11.17
2023-01-26T04:31:35.614Z,11.33
2023-01-26T04:32:38.423Z,12.00
2023-01-26T04:33:41.148Z,10.86
2023-01-26T04:34:43.875Z,11.50
2023-01-26T04:35:46.675Z,12.67
2023-01-26T04:36:49.344Z,12.33
2023-01-26T04:37:55.137Z,13.00
2023-01-26T04:38:58.016Z,11.50
2023-01-26T04:40:00.770Z,11.17
2023-01-26T04:41:03.723Z,11.83
2023-01-26T04:42:06.531Z,12.86
2023-01-26T04:43:09.327Z,14.00
2023-01-26T04:44:12.174Z,15.00
2023-01-26T04:45:14.953Z,12.67
2023-01-26T04:46:17.771Z,12.33
2023-01-26T04:47:20.475Z,13.17
2023-01-26T04:48:23.208Z,12.67
2023-01-26T04:49:26.067Z,12.50
2023-01-26T04:50:28.810Z,15.17
2023-01-26T04:51:31.475Z,14.17
2023-01-26T04:52:34.475Z,13.17
2023-01-26T04:53:37.275Z,15.00
2023-01-26T04:54:40.007Z,14.50
2023-01-26T04:55:42.904Z,11.00
2023-01-26T04:56:45.656Z,11.50
2023-01-26T04:57:48.372Z,11.50
2023-01-26T04:58:51.116Z,12.00
2023-01-26T04:59:53.854Z,13.67
2023-01-26T05:00:56.625Z,13.14
2023-01-26T05:01:59.436Z,11.00
2023-01-26T05:03:02.081Z,12.57
2023-01-26T05:04:04.821Z,12.67
2023-01-26T05:05:07.615Z,14.33
2023-01-26T05:06:10.443Z,14.50
2023-01-26T05:07:13.047Z,14.67
2023-01-26T05:08:15.809Z,14.33
2023-01-26T05:09:18.589Z,14.14
2023-01-26T05:10:21.251Z,12.33
2023-01-26T05:11:24.006Z,13.00
2023-01-26T05:12:26.719Z,14.67
2023-01-26T05:13:29.425Z,14.83
2023-01-26T05:14:32.088Z,13.33
2023-01-26T05:15:34.755Z,12.71
2023-01-26T05:16:37.659Z,12.67
2023-01-26T05:17:40.449Z,13.00
2023-01-26T05:18:43.204Z,13.00
2023-01-26T05:19:45.922Z,11.57
2023-01-26T05:20:48.901Z,12.50
2023-01-26T05:21:51.622Z,14.29
2023-01-26T05:22:54.414Z,13.67
2023-01-26T05:23:57.138Z,13.00
2023-01-26T05:24:59.785Z,14.67
2023-01-26T05:26:02.490Z,12.83
2023-01-26T05:27:05.102Z,12.33
2023-01-26T05:28:07.837Z,13.00
2023-01-26T05:29:10.521Z,14.00
2023-01-26T05:30:14.735Z,14.00
2023-01-26T05:31:17.291Z,14.00
2023-01-26T05:32:20.014Z,13.67
2023-01-26T05:33:22.742Z,14.83
2023-01-26T05:34:25.448Z,14.00
2023-01-26T05:35:28.286Z,13.83
2023-01-26T05:36:30.956Z,14.00
2023-01-26T05:37:33.691Z,14.33
2023-01-26T05:38:36.399Z,13.33
2023-01-26T05:39:39.059Z,15.33
2023-01-26T05:40:41.762Z,15.33
2023-01-26T05:41:44.496Z,12.67
2023-01-26T05:42:47.323Z,14.17
2023-01-26T05:43:50.159Z,15.33
2023-01-26T05:44:52.832Z,15.57
2023-01-26T05:45:55.730Z,16.50
2023-01-26T05:47:01.403Z,15.71
2023-01-26T05:48:04.702Z,15.00
2023-01-26T05:49:07.704Z,15.00
2023-01-26T05:50:10.644Z,15.71
2023-01-26T05:51:13.576Z,15.71
2023-01-26T05:52:16.334Z,17.00
2023-01-26T05:53:19.067Z,19.43
2023-01-26T05:54:21.791Z,19.33
2023-01-26T05:55:24.718Z,17.14
2023-01-26T05:56:27.547Z,16.83
2023-01-26T05:57:30.238Z,16.33
2023-01-26T05:58:32.968Z,17.00
2023-01-26T05:59:35.680Z,17.00
2023-01-26T06:00:38.321Z,16.17
2023-01-26T06:01:41.059Z,17.33
2023-01-26T06:02:43.911Z,17.57
2023-01-26T06:03:46.563Z,16.33
2023-01-26T06:04:49.313Z,17.00
2023-01-26T06:05:51.935Z,17.33
2023-01-26T06:06:54.788Z,17.17
2023-01-26T06:07:57.496Z,16.50
2023-01-26T06:09:00.212Z,17.33
2023-01-26T06:10:02.939Z,18.33
2023-01-26T06:11:05.814Z,19.33
2023-01-26T06:12:08.834Z,18.50
2023-01-26T06:13:11.868Z,18.67
2023-01-26T06:14:14.763Z,18.00
2023-01-26T06:15:17.689Z,18.43
2023-01-26T06:16:20.454Z,18.33
2023-01-26T06:17:23.249Z,18.00
2023-01-26T06:18:26.248Z,20.00
2023-01-26T06:19:28.995Z,17.71
2023-01-26T06:20:32.097Z,17.83
2023-01-26T06:21:34.913Z,19.83
2023-01-26T06:22:37.697Z,20.86
2023-01-26T06:23:40.340Z,20.83
2023-01-26T06:24:43.504Z,21.33
2023-01-26T06:25:46.538Z,20.86
2023-01-26T06:26:49.197Z,20.86
2023-01-26T06:27:51.969Z,20.67
2023-01-26T06:28:54.955Z,20.17
2023-01-26T06:29:57.742Z,20.86
2023-01-26T06:31:00.448Z,21.00
2023-01-26T06:32:03.406Z,20.17
2023-01-26T06:33:06.397Z,20.00
2023-01-26T06:34:09.091Z,18.29
2023-01-26T06:35:12.050Z,17.00
2023-01-26T06:36:15.089Z,19.33
2023-01-26T06:37:17.872Z,18.33
2023-01-26T06:38:20.539Z,18.50
2023-01-26T06:39:23.651Z,17.17
2023-01-26T06:40:26.451Z,16.43
2023-01-26T06:41:29.368Z,16.33
2023-01-26T06:42:32.390Z,15.00
2023-01-26T06:43:35.120Z,15.00
2023-01-26T06:44:37.984Z,15.67
2023-01-26T06:45:41.107Z,16.00
2023-01-26T06:46:44.210Z,14.14
2023-01-26T06:47:46.909Z,13.43
2023-01-26T06:48:49.631Z,14.00
2023-01-26T06:49:52.457Z,14.17
2023-01-26T06:50:55.266Z,15.83
2023-01-26T06:51:58.138Z,17.50
2023-01-26T06:53:01.259Z,16.67
2023-01-26T06:54:04.179Z,17.00
2023-01-26T06:55:06.937Z,15.67
2023-01-26T06:56:09.606Z,16.00
2023-01-26T06:57:12.314Z,14.50
2023-01-26T06:58:14.919Z,13.17
2023-01-26T06:59:17.968Z,12.67
2023-01-26T07:00:20.963Z,13.43
2023-01-26T07:01:24.098Z,13.00
2023-01-26T07:02:26.888Z,12.67
2023-01-26T07:03:29.724Z,11.67
2023-01-26T07:04:32.468Z,11.33
2023-01-26T07:05:35.128Z,11.83
2023-01-26T07:06:37.748Z,12.67
2023-01-26T07:07:40.525Z,11.83
2023-01-26T07:08:43.281Z,11.00
2023-01-26T07:09:45.983Z,11.83
2023-01-26T07:10:48.665Z,12.00
2023-01-26T07:11:51.598Z,10.83
2023-01-26T07:12:54.370Z,10.00
2023-01-26T07:13:57.112Z,11.17
2023-01-26T07:14:59.711Z,11.14
2023-01-26T07:16:02.609Z,9.50
2023-01-26T07:17:05.555Z,8.57
2023-01-26T07:18:08.483Z,9.33
2023-01-26T07:19:11.109Z,8.50
2023-01-26T07:20:13.995Z,9.33
2023-01-26T07:21:16.672Z,7.00
2023-01-26T07:22:19.287Z,7.50
2023-01-26T07:23:22.270Z,8.67
2023-01-26T07:24:25.350Z,9.00
2023-01-26T07:25:28.136Z,8.00
2023-01-26T07:26:30.968Z,8.33
2023-01-26T07:27:33.927Z,9.00
2023-01-26T07:28:38.654Z,8.67
2023-01-26T07:29:41.027Z,9.00
2023-01-26T07:30:43.777Z,9.67
2023-01-26T07:31:46.635Z,8.43
2023-01-26T07:32:49.501Z,9.67
2023-01-26T07:33:52.497Z,9.67
2023-01-26T07:34:55.494Z,9.57
2023-01-26T07:35:58.181Z,8.57
2023-01-26T07:37:00.848Z,7.83
2023-01-26T07:38:03.610Z,8.67
2023-01-26T07:39:08.211Z,9.33
2023-01-26T07:40:10.589Z,11.00
2023-01-26T07:41:13.451Z,10.29
2023-01-26T07:42:16.242Z,8.86
2023-01-26T07:43:19.122Z,9.67
2023-01-26T07:44:21.927Z,7.86
2023-01-26T07:45:24.697Z,8.50
2023-01-26T07:46:27.475Z,8.00
2023-01-26T07:47:30.182Z,8.33
2023-01-26T07:48:33.266Z,9.00
2023-01-26T07:49:36.430Z,8.57
2023-01-26T07:50:39.336Z,7.43
2023-01-26T07:51:42.173Z,7.67
2023-01-26T07:52:45.187Z,9.00
2023-01-26T07:53:48.097Z,9.71
2023-01-26T07:54:50.775Z,10.00
2023-01-26T07:55:54.768Z,10.00
2023-01-26T07:56:57.389Z,7.75
2023-01-26T07:58:00.137Z,7.83
2023-01-26T07:59:03.910Z,9.50
2023-01-26T08:00:06.984Z,11.00
2023-01-26T08:01:09.653Z,11.67
2023-01-26T08:02:12.819Z,12.00
2023-01-26T08:03:15.530Z,9.29
2023-01-26T08:04:18.255Z,9.83
2023-01-26T08:05:21.033Z,9.43
2023-01-26T08:06:23.903Z,9.00
2023-01-26T08:07:26.671Z,9.71
2023-01-26T08:08:29.362Z,11.00
2023-01-26T08:09:32.458Z,11.29
2023-01-26T08:10:35.626Z,9.57
2023-01-26T08:11:38.415Z,7.57
2023-01-26T08:12:41.366Z,8.33
2023-01-26T08:13:44.105Z,9.71
2023-01-26T08:14:47.369Z,8.00
2023-01-26T08:15:50.125Z,8.00
2023-01-26T08:16:52.901Z,8.00
2023-01-26T08:17:55.897Z,8.50
2023-01-26T08:18:58.924Z,8.00
2023-01-26T08:20:01.937Z,8.00
2023-01-26T08:21:04.709Z,7.67
2023-01-26T08:22:07.928Z,8.43
2023-01-26T08:23:10.963Z,10.00
2023-01-26T08:24:13.743Z,11.17
2023-01-26T08:25:16.360Z,12.33
2023-01-26T08:26:19.189Z,10.83
2023-01-26T08:27:22.117Z,11.83
2023-01-26T08:28:24.920Z,10.71
2023-01-26T08:29:27.498Z,8.67
2023-01-26T08:30:30.133Z,9.00
2023-01-26T08:31:33.048Z,7.67
2023-01-26T08:32:35.811Z,8.67
2023-01-26T08:33:38.614Z,8.83
2023-01-26T08:34:41.477Z,7.57
2023-01-26T08:35:44.307Z,7.33
2023-01-26T08:36:47.016Z,7.86
2023-01-26T08:37:49.636Z,9.33
2023-01-26T08:38:52.408Z,7.00
2023-01-26T08:39:55.551Z,9.00
2023-01-26T08:40:58.449Z,8.86
2023-01-26T08:42:01.426Z,9.00
2023-01-26T08:43:04.392Z,8.33
2023-01-26T08:44:07.399Z,8.17
2023-01-26T08:45:10.148Z,9.43
2023-01-26T08:46:13.153Z,10.83
2023-01-26T08:47:15.783Z,11.14
2023-01-26T08:48:18.684Z,10.50
2023-01-26T08:49:21.761Z,11.50
2023-01-26T08:50:24.383Z,13.14
2023-01-26T08:51:27.085Z,11.83
2023-01-26T08:52:30.237Z,9.71
2023-01-26T08:53:33.248Z,10.00
2023-01-26T08:54:35.935Z,11.67
2023-01-26T08:55:38.718Z,11.83
2023-01-26T08:56:41.531Z,11.50
2023-01-26T08:57:44.198Z,11.33
2023-01-26T08:58:47.052Z,9.00
2023-01-26T08:59:49.769Z,8.29
2023-01-26T09:00:52.581Z,8.33
2023-01-26T09:01:55.318Z,10.57
2023-01-26T09:02:58.213Z,9.33
2023-01-26T09:04:01.163Z,7.86
2023-01-26T09:05:04.229Z,8.83
2023-01-26T09:06:06.984Z,9.33
2023-01-26T09:07:13.489Z,8.33
2023-01-26T09:08:16.568Z,8.00
2023-01-26T09:09:19.625Z,7.50
2023-01-26T09:10:22.647Z,7.00
2023-01-26T09:11:25.329Z,7.83
2023-01-26T09:12:28.080Z,9.83
2023-01-26T09:13:31.066Z,12.67
2023-01-26T09:14:34.116Z,11.43
2023-01-26T09:15:37.098Z,10.67
2023-01-26T09:16:39.905Z,9.83
2023-01-26T09:17:42.890Z,11.14
2023-01-26T09:18:46.041Z,11.57
2023-01-26T09:19:48.761Z,13.00
2023-01-26T09:20:51.342Z,11.33
2023-01-26T09:21:54.109Z,12.17
2023-01-26T09:22:56.981Z,12.67
2023-01-26T09:23:59.804Z,12.14
2023-01-26T09:25:02.603Z,13.83
2023-01-26T09:26:05.198Z,15.83
2023-01-26T09:27:07.866Z,15.50
2023-01-26T09:28:10.567Z,13.14
2023-01-26T09:29:13.849Z,13.50
2023-01-26T09:30:16.496Z,15.00
2023-01-26T09:31:19.288Z,13.00
2023-01-26T09:32:22.268Z,13.00
2023-01-26T09:33:25.161Z,15.33
2023-01-26T09:34:28.201Z,16.33
2023-01-26T09:35:31.162Z,16.17
2023-01-26T09:36:33.862Z,17.00
2023-01-26T09:37:36.691Z,18.00
2023-01-26T09:38:39.667Z,15.83
2023-01-26T09:39:42.705Z,15.00
2023-01-26T09:40:45.780Z,13.14
2023-01-26T09:41:49.786Z,13.86
2023-01-26T09:42:52.480Z,14.50
2023-01-26T09:43:55.391Z,13.17
2023-01-26T09:44:58.344Z,14.00
2023-01-26T09:46:10.321Z,15.00
2023-01-26T09:47:13.594Z,9.86
2023-01-26T09:48:17.006Z,13.57
2023-01-26T09:49:20.064Z,13.29
2023-01-26T09:50:23.149Z,12.57
2023-01-26T09:51:26.523Z,15.17
2023-01-26T09:52:29.769Z,12.43
2023-01-26T09:53:33.089Z,12.33
2023-01-26T09:54:36.695Z,15.71
2023-01-26T09:55:39.979Z,15.86
2023-01-26T09:56:43.143Z,14.00
2023-01-26T09:57:46.635Z,13.50
2023-01-26T09:58:49.909Z,14.43
2023-01-26T09:59:53.200Z,14.29
2023-01-26T10:00:56.229Z,12.14
2023-01-26T10:01:59.483Z,11.86
2023-01-26T10:03:03.049Z,14.00
2023-01-26T10:04:06.175Z,14.57
2023-01-26T10:05:09.544Z,14.57
2023-01-26T10:06:12.837Z,13.14
2023-01-26T10:07:16.081Z,13.67
2023-01-26T10:08:19.273Z,11.86
2023-01-26T10:09:22.757Z,14.67
2023-01-26T10:10:26.052Z,14.57
2023-01-26T10:11:29.323Z,12.29
2023-01-26T10:12:32.399Z,11.71
2023-01-26T10:13:35.909Z,12.14
2023-01-26T10:14:39.138Z,12.14
2023-01-26T10:15:42.321Z,12.57
2023-01-26T10:16:45.540Z,15.29
2023-01-26T10:17:49.039Z,15.00
2023-01-26T10:18:52.206Z,15.29
2023-01-26T10:19:55.617Z,12.14
2023-01-26T10:20:58.933Z,11.14
2023-01-26T10:22:02.060Z,12.43
2023-01-26T10:23:05.371Z,14.67
2023-01-26T10:24:08.599Z,14.29
2023-01-26T10:25:12.092Z,12.50
2023-01-26T10:26:15.506Z,13.86
2023-01-26T10:27:18.990Z,13.43
2023-01-26T10:28:22.280Z,14.14
2023-01-26T10:29:25.346Z,12.57
2023-01-26T10:30:28.662Z,13.86
2023-01-26T10:31:32.157Z,14.14
2023-01-26T10:32:35.422Z,13.71
2023-01-26T10:33:38.705Z,15.43
2023-01-26T10:34:41.880Z,18.00
2023-01-26T10:35:45.270Z,18.67
2023-01-26T10:36:48.519Z,18.71
2023-01-26T10:37:51.948Z,19.71
2023-01-26T10:38:55.102Z,21.57
2023-01-26T10:39:58.477Z,23.57
2023-01-26T10:41:01.596Z,22.86
2023-01-26T10:42:04.875Z,20.71
2023-01-26T10:43:08.163Z,22.14
2023-01-26T10:44:11.641Z,27.17
2023-01-26T10:45:15.376Z,25.57
2023-01-26T10:46:19.179Z,27.57
2023-01-26T10:47:22.629Z,26.86
2023-01-26T10:48:25.818Z,24.43
2023-01-26T10:49:28.927Z,22.43
2023-01-26T10:50:32.077Z,24.00
2023-01-26T10:51:35.222Z,26.00
2023-01-26T10:52:38.205Z,24.00
2023-01-26T10:53:40.931Z,25.33
2023-01-26T10:54:43.816Z,28.17
2023-01-26T10:55:46.823Z,25.14
2023-01-26T10:56:49.885Z,25.14
2023-01-26T10:57:52.751Z,24.29
2023-01-26T10:58:55.533Z,26.50
2023-01-26T10:59:58.555Z,28.00
2023-01-26T11:01:01.494Z,25.00
2023-01-26T11:02:04.279Z,23.67
2023-01-26T11:03:07.002Z,23.29
2023-01-26T11:04:09.791Z,21.00
2023-01-26T11:05:13.114Z,19.14
2023-01-26T11:06:16.310Z,18.71
2023-01-26T11:07:19.293Z,22.43
2023-01-26T11:08:22.202Z,25.50
2023-01-26T11:09:25.212Z,23.29
2023-01-26T11:10:28.434Z,19.71
2023-01-26T11:11:31.563Z,18.29
2023-01-26T11:12:34.471Z,19.86
2023-01-26T11:13:37.237Z,21.83
2023-01-26T11:14:40.044Z,19.14
2023-01-26T11:15:42.785Z,18.86
2023-01-26T11:16:45.866Z,18.33
2023-01-26T11:17:48.518Z,18.57
2023-01-26T11:18:51.260Z,23.57
2023-01-26T11:19:53.914Z,25.67
2023-01-26T11:20:56.694Z,21.33
2023-01-26T11:21:59.455Z,18.86
2023-01-26T11:23:02.044Z,21.67
2023-01-26T11:24:04.811Z,23.50
2023-01-26T11:25:07.449Z,23.17
2023-01-26T11:26:10.045Z,23.00
2023-01-26T11:27:12.697Z,20.67
2023-01-26T11:28:15.330Z,21.17
2023-01-26T11:29:18.052Z,21.67
2023-01-26T11:30:20.704Z,21.00
2023-01-26T11:31:23.383Z,19.50
2023-01-26T11:32:26.116Z,19.17
2023-01-26T11:33:28.756Z,21.50
2023-01-26T11:34:31.521Z,21.33
2023-01-26T11:35:34.615Z,20.00
2023-01-26T11:36:37.593Z,24.50
2023-01-26T11:37:40.217Z,20.86
2023-01-26T11:38:42.900Z,19.83
2023-01-26T11:39:45.661Z,21.33
2023-01-26T11:40:48.405Z,20.67
2023-01-26T11:41:51.023Z,21.50
2023-01-26T11:42:53.705Z,21.83
2023-01-26T11:43:56.426Z,23.00
2023-01-26T11:44:59.139Z,23.50
2023-01-26T11:46:01.922Z,24.50
2023-01-26T11:47:04.773Z,24.29
2023-01-26T11:48:07.644Z,23.00
2023-01-26T11:49:10.286Z,20.86
2023-01-26T11:50:13.019Z,24.00
2023-01-26T11:51:15.572Z,22.33
2023-01-26T11:52:18.359Z,21.83
2023-01-26T11:53:21.131Z,20.33
2023-01-26T11:54:24.002Z,19.86
2023-01-26T11:55:26.785Z,20.17
2023-01-26T11:56:29.535Z,20.00
2023-01-26T11:57:32.397Z,19.33
2023-01-26T11:58:35.126Z,18.43
2023-01-26T11:59:37.917Z,19.17
2023-01-26T12:00:40.640Z,19.00
2023-01-26T12:01:43.239Z,21.67
2023-01-26T12:02:45.980Z,22.33
2023-01-26T12:03:48.583Z,21.50
2023-01-26T12:04:51.318Z,20.83
2023-01-26T12:05:54.079Z,23.17
2023-01-26T12:06:56.891Z,23.50
2023-01-26T12:07:59.722Z,21.33
2023-01-26T12:09:02.402Z,17.67
2023-01-26T12:10:05.062Z,18.33
2023-01-26T12:11:07.782Z,21.83
2023-01-26T12:12:10.462Z,21.57
2023-01-26T12:13:13.602Z,18.50
2023-01-26T12:14:16.269Z,17.14
2023-01-26T12:15:18.964Z,17.17
2023-01-26T12:16:21.692Z,20.14
2023-01-26T12:17:24.444Z,18.33
2023-01-26T12:18:42.132Z,16.67
2023-01-26T12:19:31.008Z,17.29
2023-01-26T12:20:33.698Z,19.83
2023-01-26T12:21:36.427Z,21.50
2023-01-26T12:22:39.123Z,22.83
2023-01-26T12:23:41.976Z,20.33
2023-01-26T12:25:16.131Z,19.86
2023-01-26T12:25:48.905Z,18.29
2023-01-26T12:26:51.668Z,16.67
2023-01-26T12:27:54.292Z,17.43
2023-01-26T12:28:57.090Z,18.17
2023-01-26T12:29:59.811Z,20.00
2023-01-26T12:31:02.674Z,19.83
2023-01-26T12:32:05.530Z,21.00
2023-01-26T12:33:08.282Z,17.71
2023-01-26T12:34:11.010Z,17.00
2023-01-26T12:35:14.416Z,18.83
2023-01-26T12:36:17.363Z,21.71
2023-01-26T12:37:20.216Z,22.67
2023-01-26T12:38:22.917Z,19.83
2023-01-26T12:39:25.865Z,18.17
2023-01-26T12:40:28.845Z,16.50
2023-01-26T12:41:31.607Z,17.67
2023-01-26T12:42:34.554Z,18.33
2023-01-26T12:43:37.368Z,17.67
2023-01-26T12:44:40.249Z,19.00
2023-01-26T12:45:43.223Z,18.33
2023-01-26T12:46:45.960Z,16.50
2023-01-26T12:47:48.973Z,14.67
2023-01-26T12:48:51.636Z,18.00
2023-01-26T12:49:54.461Z,18.00
2023-01-26T12:50:57.473Z,14.43
2023-01-26T12:52:00.502Z,14.33
2023-01-26T12:53:03.258Z,14.83
2023-01-26T12:54:05.952Z,14.67
2023-01-26T12:55:09.323Z,16.00
2023-01-26T12:56:12.009Z,14.57
2023-01-26T12:57:14.763Z,14.67
2023-01-26T12:58:17.492Z,16.00
2023-01-26T12:59:39.138Z,14.67
2023-01-26T13:00:24.391Z,15.86
2023-01-26T13:01:27.249Z,16.00
2023-01-26T13:02:30.775Z,16.00
2023-01-26T13:03:33.556Z,15.29
2023-01-26T13:04:36.174Z,16.33
2023-01-26T13:05:39.212Z,18.00
2023-01-26T13:06:41.977Z,14.43
2023-01-26T13:07:44.731Z,14.83
2023-01-26T13:08:47.343Z,16.83
2023-01-26T13:09:49.963Z,15.67
2023-01-26T13:10:52.722Z,16.00
2023-01-26T13:11:55.602Z,15.57
2023-01-26T13:12:58.314Z,14.83
2023-01-26T13:14:00.989Z,15.67
2023-01-26T13:15:06.139Z,14.50
2023-01-26T13:16:07.637Z,12.50
2023-01-26T13:17:10.457Z,12.67
2023-01-26T13:18:13.234Z,12.50
2023-01-26T13:19:15.987Z,13.00
2023-01-26T13:20:18.754Z,14.00
2023-01-26T13:21:21.323Z,12.50
2023-01-26T13:22:23.939Z,14.67
2023-01-26T13:23:26.784Z,17.33
2023-01-26T13:24:29.866Z,13.86
2023-01-26T13:25:32.573Z,12.57
2023-01-26T13:26:35.233Z,12.67
2023-01-26T13:27:38.308Z,15.00
2023-01-26T13:28:41.160Z,12.86
2023-01-26T13:29:44.418Z,10.86
2023-01-26T13:30:47.224Z,12.29
2023-01-26T13:31:50.277Z,15.00
2023-01-26T13:32:53.630Z,14.14
2023-01-26T13:33:56.558Z,12.33
2023-01-26T13:34:59.402Z,18.00
2023-01-26T13:36:02.504Z,12.71